Time;durP1;ratioP1;P1;durP2;ratioP2;P2;SDS_P1;SDS_P2;PMS_P1;PMS_P2;Temp;Humidity;BMP_temperature;BMP_pressure;BME280_temperature;BME280_humidity;BME280_pressure;Samples;Min_cycle;Max_cycle;Signal;HPM_P1;HPM_P2
2022/05/18 00:00:43;;;;;;;5.03;1.30;;;;;;;19.78;nan;101475.59;4838087;29;20788;-96
2022/05/18 00:04:02;;;;;;;6.13;1.60;;;;;;;19.72;nan;101466.28;4874679;29;20446;-96
2022/05/18 00:11:00;;;;;;;8.50;1.30;;;;;;;19.71;nan;101470.13;4901867;29;21000;-95
2022/05/18 00:14:08;;;;;;;11.77;2.00;;;;;;;19.65;nan;101473.84;4882270;29;20473;-96
2022/05/18 00:21:33;;;;;;;;;;;;;;;;;;;;;
2022/05/18 00:29:19;;;;;;;6.20;2.00;;;;;;;19.27;nan;101480.53;4770365;30;20611;-96
2022/05/18 00:32:41;;;;;;;9.60;2.40;;;;;;;19.19;nan;101485.56;4724837;30;20453;-95
2022/05/18 00:39:15;;;;;;;7.20;2.30;;;;;;;19.10;nan;101473.09;4745623;30;20534;-94
2022/05/18 00:42:28;;;;;;;10.80;2.47;;;;;;;19.04;nan;101455.50;4739440;30;20452;-95
2022/05/18 00:45:39;;;;;;;;;;;;;;;;;;;;;
2022/05/18 01:07:42;;;;;;;14.23;4.17;;;;;;;19.15;nan;101446.38;4787601;30;20495;-95
2022/05/18 01:22:22;;;;;;;17.30;3.70;;;;;;;18.93;nan;101425.78;4880841;29;20442;-96
2022/05/18 01:29:10;;;;;;;15.67;3.67;;;;;;;19.10;nan;101440.69;4880133;29;20505;-96
2022/05/18 01:32:35;;;;;;;12.50;3.33;;;;;;;19.06;nan;101433.91;4813718;29;20523;-96
2022/05/18 01:36:02;;;;;;;10.90;2.60;;;;;;;19.04;nan;101427.78;4834865;29;20467;-96
2022/05/18 01:43:05;;;;;;;13.70;3.00;;;;;;;19.07;nan;101426.44;4841290;29;20461;-96
2022/05/18 01:46:50;;;;;;;;;;;;;;;;;;;;;
2022/05/18 01:50:23;;;;;;;9.77;3.07;;;;;;;19.03;nan;101423.31;4844025;29;21028;-96
2022/05/18 02:58:48;;;;;;;8.83;1.80;;;;;;;18.95;nan;101377.38;4735572;30;20463;-96
2022/05/18 03:01:27;;;;;;;2.93;1.23;;;;;;;19.02;nan;101380.06;4700253;30;20487;-96
2022/05/18 03:04:29;;;;;;;4.63;1.20;;;;;;;19.08;nan;101390.19;4721549;30;20595;-96
2022/05/18 03:07:07;;;;;;;6.90;1.43;;;;;;;19.08;nan;101387.41;4792268;30;20447;-95
2022/05/18 03:09:37;;;;;;;3.57;1.20;;;;;;;19.03;nan;101381.75;4784188;29;20490;-96
2022/05/18 03:12:06;;;;;;;1.97;0.83;;;;;;;18.96;nan;101373.53;4787413;29;20488;-96
2022/05/18 03:15:09;;;;;;;2.90;0.97;;;;;;;19.06;nan;101385.94;4784983;29;21070;-96
2022/05/18 03:29:47;;;;;;;3.33;1.10;;;;;;;19.10;nan;101385.25;4891217;29;20572;-96
2022/05/18 03:36:22;;;;;;;4.20;1.10;;;;;;;19.08;nan;101365.25;4899558;29;20448;-96
2022/05/18 03:47:26;;;;;;;6.50;1.10;;;;;;;19.04;nan;101379.81;4900658;29;20875;-96
2022/05/18 04:25:05;;;;;;;8.60;3.27;;;;;;;18.49;nan;101369.59;4842318;29;20461;-95
2022/05/18 04:47:25;;;;;;;18.10;4.63;;;;;;;18.48;nan;101378.97;4823668;29;20456;-94
2022/05/18 04:50:54;;;;;;;;;;;;;;;;;;;;;
2022/05/18 04:57:15;;;;;;;16.00;4.30;;;;;;;18.30;nan;101343.84;4853597;29;20452;-93
2022/05/18 04:59:53;;;;;;;10.40;3.50;;;;;;;18.27;nan;101349.00;4858041;29;20459;-94
2022/05/18 05:02:55;;;;;;;19.37;5.30;;;;;;;18.46;nan;101369.25;4849050;29;20466;-95
2022/05/18 05:09:12;;;;;;;17.67;4.63;;;;;;;18.26;nan;101359.25;4862086;29;20515;-94
2022/05/18 05:11:48;;;;;;;13.83;4.10;;;;;;;18.33;nan;101358.28;4851423;29;20564;-94
2022/05/18 05:14:18;;;;;;;11.67;4.03;;;;;;;18.26;nan;101362.00;4870059;29;21059;-96
2022/05/18 05:16:57;;;;;;;16.83;5.27;;;;;;;18.36;nan;101379.97;4866684;29;20473;-96
2022/05/18 05:19:35;;;;;;;11.47;4.93;;;;;;;18.34;nan;101377.44;4874173;29;20801;-96
2022/05/18 05:22:14;;;;;;;17.33;5.40;;;;;;;18.33;nan;101386.81;4894484;29;20544;-96
2022/05/18 05:25:40;;;;;;;19.63;6.53;;;;;;;18.33;nan;101386.81;4874974;29;20449;-96
2022/05/18 05:29:03;;;;;;;25.13;6.27;;;;;;;18.19;nan;101361.22;4880174;29;20490;-96
2022/05/18 05:36:27;;;;;;;;;;;;;;;;;;;;;
2022/05/18 05:39:46;;;;;;;14.00;6.23;;;;;;;18.20;nan;101376.75;4829270;29;21096;-96
2022/05/18 05:46:42;;;;;;;15.53;6.40;;;;;;;18.19;nan;101382.50;4846660;29;21002;-96
2022/05/18 05:53:24;;;;;;;11.10;6.60;;;;;;;18.25;nan;101367.75;4846244;29;20950;-96
2022/05/18 06:03:21;;;;;;;8.63;5.77;;;;;;;18.32;nan;101410.03;4878841;29;20461;-96
2022/05/18 06:07:03;;;;;;;13.07;6.57;;;;;;;18.34;nan;101415.34;4886203;29;20501;-96
2022/05/18 06:25:33;;;;;;;9.80;5.50;;;;;;;18.44;nan;101411.00;4903361;29;20401;-94
2022/05/18 06:28:30;;;;;;;15.33;6.20;;;;;;;18.46;nan;101419.06;4873690;29;20481;-94
2022/05/18 06:31:20;;;;;;;12.03;5.93;;;;;;;18.50;nan;101421.13;4885790;29;20458;-94
2022/05/18 06:37:29;;;;;;;12.70;5.43;;;;;;;18.63;nan;101426.56;4901305;29;20449;-93
2022/05/18 06:40:02;;;;;;;13.10;5.90;;;;;;;18.59;nan;101407.88;4885531;29;20535;-93
2022/05/18 06:43:10;;;;;;;17.57;6.10;;;;;;;18.78;nan;101425.31;4869436;29;20454;-95
2022/05/18 07:00:57;;;;;;;18.87;6.10;;;;;;;19.05;nan;101412.00;4813656;29;20424;-94
2022/05/18 07:03:34;;;;;;;16.10;6.73;;;;;;;19.10;nan;101410.19;4832382;29;20566;-95
2022/05/18 07:10:31;;;;;;;19.77;6.67;;;;;;;19.38;nan;101422.63;4866791;29;20451;-94
2022/05/18 07:13:16;;;;;;;23.60;8.17;;;;;;;19.47;nan;101423.97;4850121;29;20812;-94
2022/05/18 07:16:00;;;;;;;19.87;6.70;;;;;;;19.52;nan;101424.13;4850206;29;20813;-96
2022/05/18 07:19:00;;;;;;;13.40;6.40;;;;;;;19.56;nan;101425.34;4874099;29;20478;-96
2022/05/18 07:22:25;;;;;;;19.00;7.57;;;;;;;19.61;nan;101406.09;4873043;29;20480;-95
2022/05/18 07:25:46;;;;;;;21.27;6.40;;;;;;;19.79;nan;101414.31;4861490;29;20456;-93
2022/05/18 07:28:16;;;;;;;21.13;7.33;;;;;;;19.79;nan;101402.38;4873223;29;20518;-94
2022/05/18 07:46:09;;;;;;;15.33;6.07;;;;;;;20.41;nan;101395.28;4900021;29;20442;-94
2022/05/18 07:56:29;;;;;;;20.10;6.33;;;;;;;20.84;nan;101388.44;4899991;29;20889;-94
2022/05/18 08:29:51;;;;;;;17.70;4.33;;;;;;;21.84;nan;101424.91;4895194;29;20496;-94
2022/05/18 08:36:14;;;;;;;16.93;5.57;;;;;;;21.85;nan;101436.88;4888336;29;20496;-93
2022/05/18 08:39:19;;;;;;;12.43;4.93;;;;;;;21.87;nan;101434.69;4882810;29;20451;-93
2022/05/18 08:42:10;;;;;;;10.43;4.07;;;;;;;21.75;nan;101400.50;4891079;29;20949;-94
2022/05/18 09:04:49;;;;;;;11.30;5.20;;;;;;;22.05;nan;101399.13;4899061;29;20413;-93
2022/05/18 09:35:17;;;;;;;8.83;3.87;;;;;;;22.91;nan;101415.41;4885799;29;20555;-94
2022/05/18 10:39:56;;;;;;;12.43;3.30;;;;;;;24.00;nan;101424.44;4897119;29;20535;-90
2022/05/18 10:55:11;;;;;;;12.30;3.93;;;;;;;24.10;nan;101430.09;4881362;29;20398;-91
2022/05/18 10:58:00;;;;;;;11.77;4.97;;;;;;;24.30;nan;101428.59;4863991;29;20469;-90
2022/05/18 11:00:49;;;;;;;30.63;11.30;;;;;;;24.40;nan;101428.69;4850069;29;20549;-90
2022/05/18 11:03:41;;;;;;;10.40;3.37;;;;;;;24.56;nan;101422.06;4879190;29;20458;-90
2022/05/18 11:06:20;;;;;;;9.73;3.70;;;;;;;24.70;nan;101423.25;4836088;29;20458;-92
2022/05/18 11:12:09;;;;;;;10.23;3.73;;;;;;;24.90;nan;101416.06;4812587;29;20469;-89
2022/05/18 11:19:00;;;;;;;8.70;3.93;;;;;;;25.00;nan;101421.75;4825182;29;20919;-91
2022/05/18 11:22:09;;;;;;;13.27;3.67;;;;;;;25.05;nan;101410.56;4801382;29;20461;-91
2022/05/18 11:25:17;;;;;;;11.03;3.87;;;;;;;25.47;nan;101422.47;4822351;29;20468;-92
2022/05/18 11:28:31;;;;;;;10.00;3.37;;;;;;;25.84;nan;101415.81;4813583;29;20522;-91
2022/05/18 19:49:12;;;;;;;8.83;1.17;;;;;;;20.60;nan;101307.09;4785937;29;20485;-93
2022/05/18 19:51:46;;;;;;;8.37;1.23;;;;;;;20.57;nan;101316.81;4770281;30;20460;-94
2022/05/18 19:57:45;;;;;;;7.20;1.20;;;;;;;20.55;nan;101324.53;4769926;30;20840;-93
2022/05/18 20:00:44;;;;;;;2.50;0.77;;;;;;;20.48;nan;101332.16;4755110;30;20545;-93
2022/05/18 20:03:42;;;;;;;2.40;0.90;;;;;;;20.43;nan;101332.03;4774554;30;20466;-93
2022/05/18 20:06:16;;;;;;;6.70;1.10;;;;;;;20.38;nan;101328.31;4787873;30;20451;-94
2022/05/18 20:09:05;;;;;;;2.70;0.90;;;;;;;20.32;nan;101324.53;4755101;30;20503;-94
2022/05/18 20:11:35;;;;;;;6.20;1.23;;;;;;;20.19;nan;101324.81;4780876;29;20457;-95
2022/05/18 20:38:30;;;;;;;4.27;1.10;;;;;;;19.96;nan;101340.41;4837238;29;20451;-94
2022/05/18 20:41:06;;;;;;;6.30;1.43;;;;;;;19.86;nan;101339.28;4842778;29;20463;-94
2022/05/18 20:43:57;;;;;;;8.10;2.47;;;;;;;19.92;nan;101353.06;4857612;29;20771;-95
2022/05/18 20:50:12;;;;;;;7.13;1.37;;;;;;;19.85;nan;101363.41;4843837;29;20541;-93
2022/05/18 20:52:40;;;;;;;11.03;1.87;;;;;;;19.81;nan;101351.13;4827771;29;20868;-94
2022/05/18 20:55:28;;;;;;;3.90;1.27;;;;;;;19.86;nan;101367.03;4812992;29;20828;-94
2022/05/18 20:58:35;;;;;;;6.17;1.87;;;;;;;19.81;nan;101367.78;4838150;29;20464;-94
2022/05/18 21:01:13;;;;;;;9.97;1.57;;;;;;;19.65;nan;101374.00;4855071;29;20461;-94
2022/05/18 21:03:55;;;;;;;7.27;1.63;;;;;;;19.73;nan;101359.78;4799217;29;20528;-94
2022/05/18 21:06:29;;;;;;;10.87;1.40;;;;;;;19.68;nan;101345.78;4859569;29;20471;-93
2022/05/18 21:08:57;;;;;;;6.57;1.50;;;;;;;19.66;nan;101347.94;4830324;29;20831;-94
2022/05/18 21:11:41;;;;;;;6.23;1.43;;;;;;;19.63;nan;101353.97;4830789;29;20463;-93
2022/05/18 21:14:11;;;;;;;6.47;1.10;;;;;;;19.66;nan;101370.16;4860572;29;20452;-93
2022/05/18 21:16:46;;;;;;;5.67;1.10;;;;;;;19.54;nan;101356.28;4830896;29;20460;-94
2022/05/18 21:19:55;;;;;;;11.00;1.30;;;;;;;19.65;nan;101374.84;4845319;29;20452;-94
2022/05/18 21:22:53;;;;;;;4.20;1.13;;;;;;;19.64;nan;101366.75;4845859;29;20515;-94
2022/05/18 21:25:41;;;;;;;13.37;1.87;;;;;;;19.65;nan;101374.84;4860587;29;20573;-93
2022/05/18 21:28:26;;;;;;;4.63;1.30;;;;;;;19.67;nan;101369.06;4860561;29;20460;-93
2022/05/18 21:30:59;;;;;;;4.03;1.37;;;;;;;19.68;nan;101379.06;4845710;29;20463;-94
2022/05/18 21:33:36;;;;;;;9.33;1.20;;;;;;;19.65;nan;101374.84;4830321;29;20847;-94
2022/05/18 21:36:29;;;;;;;5.53;1.17;;;;;;;19.67;nan;101386.53;4831736;29;20456;-94
2022/05/18 21:39:12;;;;;;;5.57;1.40;;;;;;;19.68;nan;101387.41;4833166;29;20586;-92
2022/05/18 21:42:28;;;;;;;11.27;2.40;;;;;;;19.72;nan;101385.00;4812526;29;20437;-94
2022/05/18 21:44:57;;;;;;;6.77;1.50;;;;;;;19.65;nan;101390.63;4824599;29;20493;-94
2022/05/18 21:47:31;;;;;;;8.27;1.47;;;;;;;19.67;nan;101392.09;4817376;29;20464;-94
2022/05/18 21:50:11;;;;;;;7.50;1.27;;;;;;;19.55;nan;101368.22;4844917;29;20488;-94
2022/05/18 21:52:39;;;;;;;7.33;1.50;;;;;;;19.69;nan;101378.00;4830034;29;20479;-94
2022/05/18 21:55:38;;;;;;;4.60;1.60;;;;;;;19.78;nan;101396.00;4830312;29;20928;-94
2022/05/18 21:58:21;;;;;;;8.80;2.00;;;;;;;19.73;nan;101386.69;4832767;29;20863;-94
2022/05/18 22:01:13;;;;;;;8.83;2.00;;;;;;;19.70;nan;101376.06;4815393;29;20451;-94
2022/05/18 22:04:13;;;;;;;6.17;1.30;;;;;;;19.65;nan;101380.38;4846459;29;20460;-94
2022/05/18 22:07:05;;;;;;;6.70;1.50;;;;;;;19.69;nan;101380.75;4830173;29;20436;-93
2022/05/18 22:09:35;;;;;;;7.03;1.50;;;;;;;19.56;nan;101370.75;4845736;29;20495;-94
2022/05/18 22:12:21;;;;;;;8.50;1.53;;;;;;;19.59;nan;101381.38;4829650;29;20467;-94
2022/05/18 22:14:49;;;;;;;4.67;1.23;;;;;;;19.48;nan;101365.50;4829688;29;20464;-93
2022/05/18 22:17:21;;;;;;;11.70;1.60;;;;;;;19.58;nan;101381.59;4814364;29;20818;-94
2022/05/18 22:19:58;;;;;;;10.07;1.50;;;;;;;19.57;nan;101382.69;4829957;29;20825;-93
2022/05/18 22:22:26;;;;;;;11.63;1.90;;;;;;;19.60;nan;101365.56;4837764;29;20455;-93
2022/05/18 22:24:57;;;;;;;5.53;1.57;;;;;;;19.59;nan;101373.03;4829550;29;20448;-94
2022/05/18 22:27:38;;;;;;;13.37;2.37;;;;;;;19.42;nan;101363.69;4830556;29;20455;-93
2022/05/18 22:30:17;;;;;;;8.37;1.90;;;;;;;19.36;nan;101361.84;4813744;29;20486;-94
2022/05/18 22:32:49;;;;;;;6.20;1.73;;;;;;;19.44;nan;101371.75;4844673;29;20471;-93
2022/05/18 22:35:34;;;;;;;6.70;1.57;;;;;;;19.45;nan;101381.75;4829832;29;20947;-94
2022/05/18 22:38:29;;;;;;;9.80;2.00;;;;;;;19.36;nan;101374.88;4840010;29;20480;-93
2022/05/18 22:41:00;;;;;;;9.13;1.57;;;;;;;19.29;nan;101378.59;4825992;29;20465;-94
2022/05/18 22:43:29;;;;;;;10.17;1.90;;;;;;;19.23;nan;101371.22;4837677;29;20449;-93
2022/05/18 22:46:05;;;;;;;6.17;1.70;;;;;;;19.29;nan;101369.41;4828265;29;20460;-94
2022/05/18 22:48:41;;;;;;;4.83;1.67;;;;;;;19.20;nan;101374.47;4814225;29;20467;-94
2022/05/18 22:51:14;;;;;;;8.53;1.63;;;;;;;19.14;nan;101363.47;4828887;29;20487;-93
2022/05/18 22:53:57;;;;;;;6.70;1.53;;;;;;;19.23;nan;101371.22;4814644;29;20452;-94
2022/05/18 22:56:27;;;;;;;4.97;1.70;;;;;;;19.21;nan;101364.22;4843780;29;20468;-94
2022/05/18 22:58:55;;;;;;;8.77;1.57;;;;;;;19.20;nan;101368.94;4829088;29;20534;-93
2022/05/18 23:01:30;;;;;;;10.87;1.70;;;;;;;19.20;nan;101362.53;4814159;29;20460;-93
2022/05/18 23:04:06;;;;;;;9.20;1.70;;;;;;;19.13;nan;101359.84;4829013;29;20478;-93
2022/05/18 23:06:36;;;;;;;11.70;1.77;;;;;;;19.11;nan;101345.38;4825772;29;20469;-93
2022/05/18 23:09:56;;;;;;;12.37;1.33;;;;;;;19.21;nan;101351.22;4810647;29;20472;-93
2022/05/18 23:12:27;;;;;;;6.13;1.63;;;;;;;19.15;nan;101357.69;4826367;29;20514;-93
2022/05/18 23:15:01;;;;;;;6.03;1.43;;;;;;;19.15;nan;101352.16;4840238;29;20469;-93
2022/05/18 23:17:51;;;;;;;9.57;1.50;;;;;;;19.16;nan;101358.53;4828578;29;20520;-93
2022/05/18 23:20:28;;;;;;;8.07;1.50;;;;;;;19.17;nan;101351.91;4829053;29;20489;-93
2022/05/18 23:25:47;;;;;;;7.93;1.83;;;;;;;19.15;nan;101346.59;4825773;29;20545;-93
2022/05/18 23:28:27;;;;;;;8.27;1.60;;;;;;;19.16;nan;101347.44;4824907;29;20456;-94
2022/05/18 23:30:56;;;;;;;14.00;2.00;;;;;;;19.08;nan;101345.00;4810564;29;21072;-93
2022/05/18 23:33:49;;;;;;;11.20;1.37;;;;;;;19.18;nan;101359.16;4825378;29;20460;-93
2022/05/18 23:36:20;;;;;;;7.93;2.00;;;;;;;19.09;nan;101357.78;4827663;29;20475;-93
2022/05/18 23:42:45;;;;;;;5.53;1.43;;;;;;;19.10;nan;101360.31;4844389;29;20955;-94
2022/05/18 23:45:16;;;;;;;4.80;1.33;;;;;;;19.08;nan;101361.63;4830343;29;20456;-94
2022/05/18 23:47:55;;;;;;;7.07;1.67;;;;;;;19.02;nan;101346.81;4825533;29;20796;-94
2022/05/18 23:53:19;;;;;;;6.83;1.93;;;;;;;18.94;nan;101349.91;4812384;29;20465;-94
2022/05/18 23:56:29;;;;;;;7.40;1.23;;;;;;;19.02;nan;101357.91;4810595;29;21238;-93
2022/05/18 23:58:59;;;;;;;9.00;1.57;;;;;;;19.12;nan;101357.31;4821816;29;20453;-93
